Latest Weather Observations for Richmond

IDN60801

Issued at 8:02 pm EST Saturday 5 September 2015 (issued every 30 minutes, with the page automatically refreshed every 10 minutes)

About weather observations | Map of weather stations | Latest weather observations for NSW | Other Formats
Station Details ID: 067105 Name: RICHMOND RAAF Lat: -33.60 Lon: 150.78 Height: 19.0 m
Data from the previous 72 hours. | See also: Recent months at Richmond
Date/Time
EST
Temp
°C
App
Temp
°C
Dew
Point
Rel
Hum
%
Delta-T
°C
Wind Press
QNH
hPa
Press
MSL
hPa
Rain
since 9 am
mm
Dir
 
Spd
km/h
Gust
km/h
Spd
kts
Gust
kts
05/08:00pm 14.6 13.8 11.2 80 1.8 SW 6 7 3 4 1022.8 1022.8 -
05/07:30pm 14.6 13.7 10.8 78 2.0 SW 6 7 3 4 1022.6 1022.6 0.2
05/07:00pm 15.0 13.2 10.8 76 2.2 SSE 11 15 6 8 1022.0 1022.0 0.2
05/06:30pm 15.7 12.8 10.9 73 2.6 SE 17 26 9 14 1021.6 1021.6 0.2
05/06:00pm 16.3 13.0 11.0 71 2.8 SE 19 22 10 12 1021.1 1021.1 0.2
05/05:30pm 16.9 13.4 11.0 68 3.2 SE 20 30 11 16 1020.3 1020.3 0.2
05/05:00pm 17.6 13.8 9.8 60 4.1 ESE 20 28 11 15 1020.0 1020.0 0.2
05/04:30pm 18.1 13.1 9.7 58 4.4 ESE 26 32 14 17 1019.6 1019.6 0.2
05/04:00pm 18.6 14.6 9.1 54 5.0 SE 20 26 11 14 1019.3 1019.3 0.2
05/03:30pm 19.5 15.0 10.0 54 5.1 SE 24 30 13 16 1019.0 1019.0 0.2
05/03:00pm 20.8 18.8 7.1 41 7.0 E 7 13 4 7 1018.8 1018.8 0.2
05/02:30pm 19.8 17.8 7.2 44 6.4 E 7 11 4 6 1018.9 1018.9 0.2
05/02:00pm 19.6 16.3 8.0 47 6.0 SE 15 19 8 10 1018.9 1018.9 0.2
05/01:30pm 20.0 17.0 7.7 45 6.3 SSE 13 20 7 11 1019.1 1019.1 0.2
05/01:00pm 20.5 19.2 9.1 48 6.0 SE 6 13 3 7 1019.6 1019.6 0.2
05/12:30pm 20.3 19.2 9.8 51 5.6 SSE 6 19 3 10 1020.1 1020.1 0.2
05/12:00pm 19.3 18.0 10.0 55 5.0 ENE 7 13 4 7 1020.5 1020.5 0.2
05/11:30am 18.4 17.2 11.7 65 3.7 ESE 9 13 5 7 1021.1 1021.1 0.2
05/11:00am 16.9 16.0 11.4 70 3.0 E 7 11 4 6 1021.5 1021.5 0.0
05/10:30am 15.9 14.9 12.3 79 2.0 ENE 9 11 5 6 1021.9 1021.9 0.0
05/10:01am 14.4 14.0 12.4 88 1.1 ESE 6 11 3 6 1022.2 1022.2 0.0
05/10:00am 14.4 14.0 12.4 88 1.1 ESE 6 11 3 6 1022.3 1022.3 0.0
05/09:30am 12.3 11.8 12.0 98 0.2 E 6 9 3 5 1022.6 1022.6 0.0
05/09:26am 12.5 12.0 12.2 98 0.2 E 6 9 3 5 1022.6 1022.6 0.0
05/09:00am 11.6 10.7 11.4 99 0.1 E 7 9 4 5 1022.6 1022.6 0.6
05/08:54am 11.3 10.3 11.1 99 0.1 E 7 11 4 6 1022.6 1022.6 0.6
05/08:43am 11.0 9.9 10.8 99 0.1 ENE 7 11 4 6 1022.6 1022.6 0.6
05/08:30am 10.8 10.3 10.6 99 0.1 E 4 7 2 4 1022.6 1022.6 0.6
05/08:28am 10.6 10.4 10.4 99 0.1 ESE 2 7 1 4 1022.6 1022.6 0.6
05/08:00am 10.2 8.9 10.0 99 0.1 ENE 7 9 4 5 1022.4 1022.4 0.6
05/07:30am 9.5 9.0 9.2 98 0.1 ENE 2 7 1 4 1022.3 1022.3 0.6
05/07:00am 8.5 6.9 8.2 98 0.1 NNE 6 7 3 4 1022.1 1022.1 0.6
05/06:30am 8.1 7.6 7.8 98 0.1 CALM 0 0 0 0 1022.0 1022.0 0.6
05/06:00am 7.7 7.1 7.4 98 0.1 CALM 0 0 0 0 1021.5 1021.5 0.6
05/05:30am 7.8 7.2 7.5 98 0.1 CALM 0 0 0 0 1021.3 1021.3 0.6
05/05:00am 7.7 7.1 7.4 98 0.1 CALM 0 4 0 2 1021.2 1021.2 0.6
05/04:30am 7.8 7.2 7.5 98 0.1 CALM 0 0 0 0 1020.9 1020.9 0.6
05/04:00am 8.3 7.8 8.0 98 0.1 CALM 0 0 0 0 1020.6 1020.6 0.6
05/03:30am 8.3 7.8 8.0 98 0.1 CALM 0 0 0 0 1020.5 1020.5 0.6
05/03:00am 9.0 8.7 8.7 98 0.1 CALM 0 0 0 0 1020.6 1020.6 0.6
05/02:38am 9.6 8.7 9.3 98 0.1 SSW 4 9 2 5 1020.8 1020.8 0.6
05/02:30am 9.8 9.7 9.5 98 0.1 CALM 0 0 0 0 1020.8 1020.8 0.6
05/02:03am 10.8 11.0 10.5 98 0.2 CALM 0 0 0 0 1021.2 1021.2 0.6
05/02:02am 10.8 11.0 10.5 98 0.2 CALM 0 0 0 0 1021.2 1021.2 0.6
05/02:00am 10.9 11.1 10.6 98 0.2 CALM 0 0 0 0 1021.2 1021.2 0.6
05/01:41am 11.1 11.4 10.8 98 0.2 CALM 0 0 0 0 1021.3 1021.3 0.6
05/01:32am 11.2 11.4 10.7 97 0.3 CALM 0 4 0 2 1021.5 1021.5 0.6
05/01:30am 11.3 11.6 10.8 97 0.3 CALM 0 6 0 3 1021.6 1021.6 0.6
05/01:00am 12.0 11.1 11.4 96 0.3 NNE 7 9 4 5 1021.7 1021.7 0.6
05/12:30am 12.8 12.2 12.2 96 0.3 N 7 7 4 4 1022.0 1022.0 0.6
05/12:00am 13.0 13.8 12.5 97 0.3 CALM 0 0 0 0 1022.3 1022.3 0.6
 
Date/Time
EST
Temp
°C
App
Temp
°C
Dew
Point
Rel
Hum
%
Delta-T
°C
Wind Press
QNH
hPa
Press
MSL
hPa
Rain
since 9 am
mm
Dir
 
Spd
km/h
Gust
km/h
Spd
kts
Gust
kts
04/11:30pm 12.8 12.4 12.3 97 0.3 NW 6 7 3 4 1022.5 1022.5 0.6
04/11:00pm 12.7 12.2 12.1 96 0.3 NNW 6 7 3 4 1022.5 1022.5 0.6
04/10:30pm 13.0 12.4 12.4 96 0.3 N 7 9 4 5 1022.6 1022.6 0.4
04/10:00pm 13.4 13.1 12.6 95 0.4 NW 6 7 3 4 1022.7 1022.7 0.4
04/09:30pm 13.6 14.3 12.3 92 0.7 CALM 0 2 0 1 1022.5 1022.5 0.4
04/09:00pm 13.9 13.5 12.5 91 0.8 WSW 6 7 3 4 1022.4 1022.4 0.4
04/08:30pm 14.0 13.3 12.0 88 1.1 SW 7 13 4 7 1022.5 1022.5 0.0
04/08:00pm 14.3 14.9 11.8 85 1.3 CALM 0 0 0 0 1022.2 1022.2 0.0
04/07:30pm 14.2 14.8 11.9 86 1.2 CALM 0 0 0 0 1022.0 1022.0 0.0
04/07:00pm 14.2 13.3 11.2 82 1.6 ENE 7 9 4 5 1021.8 1021.8 0.0
04/06:30pm 14.4 13.1 11.2 81 1.7 NE 9 11 5 6 1021.5 1021.5 0.0
04/06:00pm 15.0 12.8 10.8 76 2.2 E 13 19 7 10 1021.1 1021.1 0.0
04/05:30pm 16.0 13.7 10.3 69 3.0 SE 13 20 7 11 1020.7 1020.7 0.0
04/05:00pm 17.3 16.0 10.0 62 3.8 ESE 7 9 4 5 1020.5 1020.5 0.0
04/04:30pm 17.6 14.8 8.5 55 4.7 ESE 13 15 7 8 1020.2 1020.2 0.0
04/04:00pm 18.2 16.7 8.5 53 5.0 ESE 6 7 3 4 1020.2 1020.2 0.0
04/03:30pm 18.3 15.4 8.3 52 5.1 ESE 13 17 7 9 1020.2 1020.2 0.0
04/03:00pm 19.2 16.1 8.8 51 5.4 NE 15 20 8 11 1020.2 1020.2 0.0
04/02:30pm 19.1 17.3 8.1 49 5.7 SSE 7 20 4 11 1020.3 1020.3 0.0
04/02:00pm 18.4 16.3 8.1 51 5.3 SSW 9 17 5 9 1020.5 1020.5 0.0
04/01:30pm 18.2 15.1 8.7 54 4.9 SSE 15 20 8 11 1020.8 1020.8 0.0
04/01:00pm 18.1 15.3 8.7 54 4.9 S 13 17 7 9 1021.0 1021.0 0.0
04/12:30pm 17.9 15.5 8.5 54 4.8 S 11 17 6 9 1021.3 1021.3 0.0
04/12:00pm 18.9 15.9 9.4 54 5.0 S 15 22 8 12 1021.5 1021.5 0.0
04/11:30am 17.7 14.5 8.6 55 4.7 S 15 24 8 13 1021.8 1021.8 0.0
04/11:00am 17.6 13.6 9.0 57 4.4 S 20 30 11 16 1022.1 1022.1 0.0
04/10:30am 17.1 12.9 8.3 56 4.5 S 20 33 11 18 1022.3 1022.3 0.0
04/10:00am 17.0 12.9 8.7 58 4.3 S 20 28 11 15 1022.2 1022.2 0.0
04/09:30am 16.2 12.4 9.2 63 3.6 SSW 19 28 10 15 1022.2 1022.2 0.0
04/09:00am 15.8 12.4 9.2 65 3.4 S 17 22 9 12 1022.2 1022.2 0.0
04/08:30am 15.7 12.2 8.9 64 3.5 SSW 17 24 9 13 1021.7 1021.7 0.0
04/08:00am 15.4 11.6 9.1 66 3.2 SSW 19 28 10 15 1021.2 1021.2 0.0
04/07:30am 15.1 11.3 9.2 68 3.0 SSW 19 26 10 14 1021.0 1021.0 0.0
04/07:00am 14.7 11.3 9.3 70 2.8 SSW 17 24 9 13 1020.4 1020.4 0.0
04/06:30am 14.4 12.1 9.0 70 2.7 SSW 11 19 6 10 1019.9 1019.9 0.0
04/06:00am 14.5 11.8 8.9 69 2.8 SSW 13 17 7 9 1019.6 1019.6 0.0
04/05:30am 14.4 11.3 8.8 69 2.8 SSW 15 22 8 12 1019.0 1019.0 0.0
04/05:00am 14.7 11.6 8.9 68 2.9 SSW 15 20 8 11 1018.6 1018.6 0.0
04/04:30am 14.8 11.4 9.0 68 3.0 SSW 17 22 9 12 1018.2 1018.2 0.0
04/04:00am 14.6 11.0 8.5 67 3.1 SSW 17 24 9 13 1017.8 1017.8 0.0
04/03:30am 14.9 11.0 8.6 66 3.2 SSW 19 32 10 17 1017.3 1017.3 0.0
04/03:00am 15.0 11.1 8.7 66 3.2 SSW 19 28 10 15 1017.1 1017.1 0.0
04/02:30am 15.1 11.0 8.6 65 3.3 SSW 20 30 11 16 1016.9 1016.9 0.0
04/02:00am 14.9 10.9 8.2 64 3.4 SSW 19 28 10 15 1016.7 1016.7 0.0
04/01:30am 15.1 10.9 8.1 63 3.5 SSW 20 28 11 15 1016.5 1016.5 0.0
04/01:00am 15.1 10.9 8.1 63 3.5 SW 20 28 11 15 1015.9 1015.9 0.0
04/12:30am 14.6 10.8 7.6 63 3.5 SW 17 26 9 14 1016.0 1016.0 0.0
04/12:00am 15.1 10.7 7.6 61 3.7 SW 20 30 11 16 1015.4 1015.4 0.0
 
Date/Time
EST
Temp
°C
App
Temp
°C
Dew
Point
Rel
Hum
%
Delta-T
°C
Wind Press
QNH
hPa
Press
MSL
hPa
Rain
since 9 am
mm
Dir
 
Spd
km/h
Gust
km/h
Spd
kts
Gust
kts
03/11:30pm 15.6 10.4 7.4 58 4.1 SW 24 39 13 21 1014.8 1014.8 0.0
03/11:00pm 15.8 11.0 7.3 57 4.2 SSW 22 35 12 19 1014.5 1014.5 0.0
03/10:30pm 15.5 11.4 7.8 60 3.9 SSW 19 32 10 17 1014.4 1014.4 0.0
03/10:00pm 15.4 11.6 7.7 60 3.8 SSW 17 30 9 16 1014.2 1014.2 0.0
03/09:30pm 15.2 10.5 7.7 61 3.7 SW 22 35 12 19 1014.2 1014.2 0.0
03/09:00pm 15.4 10.9 6.9 57 4.2 SW 20 28 11 15 1014.0 1014.0 0.0
03/08:30pm 15.6 11.5 6.3 54 4.5 WSW 17 24 9 13 1013.2 1013.2 0.0
03/08:00pm 15.6 11.4 5.8 52 4.7 WSW 17 28 9 15 1012.6 1012.6 0.0
03/07:30pm 15.5 11.7 5.7 52 4.7 WSW 15 19 8 10 1011.8 1011.8 0.0
03/07:00pm 15.8 11.5 5.4 50 5.0 SW 17 24 9 13 1011.4 1011.4 0.0
03/06:30pm 16.1 11.8 5.4 49 5.1 SW 17 20 9 11 1010.9 1010.9 0.0
03/06:00pm 16.4 12.8 5.1 47 5.4 SW 13 17 7 9 1010.0 1010.0 0.0
03/05:30pm 17.0 13.4 5.0 45 5.7 SW 13 20 7 11 1009.1 1009.1 0.0
03/05:00pm 17.8 14.2 5.1 43 6.1 SW 13 17 7 9 1008.4 1008.4 0.0
03/04:30pm 18.5 13.6 3.9 38 6.9 SSW 19 28 10 15 1007.6 1007.6 0.0
03/04:00pm 19.4 13.1 3.6 35 7.5 WSW 26 39 14 21 1006.9 1006.9 0.0
03/03:30pm 20.0 12.7 4.5 36 7.5 W 32 39 17 21 1006.5 1006.5 0.0
03/03:00pm 20.1 14.9 5.7 39 7.1 W 22 33 12 18 1006.3 1006.3 0.0
03/02:30pm 19.7 12.8 4.6 37 7.3 WSW 30 41 16 22 1005.9 1005.9 0.0
03/02:06pm 19.7 13.3 5.4 39 7.0 WSW 28 46 15 25 1005.7 1005.7 0.0
03/02:00pm 19.6 12.4 4.9 38 7.2 W 32 46 17 25 1005.7 1005.7 0.0
03/01:30pm 19.6 13.3 5.6 40 6.9 WSW 28 39 15 21 1005.7 1005.7 0.0
03/01:00pm 19.3 14.7 5.4 40 6.8 WNW 19 33 10 18 1005.7 1005.7 0.0
03/12:30pm 18.0 13.7 7.1 49 5.5 NW 19 28 10 15 1006.1 1006.1 0.0
03/12:00pm 17.4 13.5 6.9 50 5.2 NW 17 22 9 12 1006.5 1006.5 0.0
03/11:30am 17.1 13.6 7.2 52 4.9 NW 15 19 8 10 1006.8 1006.8 0.0
03/11:00am 16.6 13.0 6.7 52 4.9 NW 15 20 8 11 1006.9 1006.9 0.0
03/10:30am 16.3 12.6 8.0 58 4.2 WNW 17 24 9 13 1006.8 1006.8 0.0
03/10:00am 16.0 12.5 8.7 62 3.7 WNW 17 24 9 13 1006.7 1006.7 0.0
03/09:30am 14.3 14.0 11.3 82 1.6 ESE 4 7 2 4 1006.4 1006.4 0.0
03/09:00am 12.8 12.0 11.2 90 0.8 NE 6 9 3 5 1006.3 1006.3 1.8
03/08:30am 12.0 11.5 10.6 91 0.7 NE 4 7 2 4 1006.2 1006.2 1.8
03/08:00am 10.9 9.9 10.4 97 0.3 NNW 6 7 3 4 1006.2 1006.2 1.8
03/07:37am 10.3 10.4 10.0 98 0.2 CALM 0 0 0 0 1005.9 1005.9 1.8
03/07:30am 9.6 9.5 9.3 98 0.1 CALM 0 0 0 0 1005.8 1005.8 1.8
03/07:12am 8.3 7.8 8.0 98 0.1 CALM 0 0 0 0 1005.7 1005.7 1.8
03/07:00am 7.6 6.2 7.3 98 0.1 N 4 7 2 4 1005.5 1005.5 1.8
03/06:30am 7.6 6.6 7.3 98 0.1 NNW 2 6 1 3 1005.1 1005.1 1.8
03/06:00am 7.6 6.2 7.3 98 0.1 NNW 4 9 2 5 1005.3 1005.3 1.8
03/05:30am 7.9 6.2 7.6 98 0.1 NE 6 9 3 5 1005.0 1005.0 1.8
03/05:03am 9.1 7.7 8.8 98 0.1 NE 6 7 3 4 1005.2 1005.2 1.8
03/05:00am 9.0 7.6 8.7 98 0.1 NE 6 7 3 4 1005.2 1005.2 1.8
03/04:49am 8.5 6.9 8.2 98 0.1 NW 6 9 3 5 1005.3 1005.3 1.8
03/04:47am 9.1 7.7 8.8 98 0.1 WNW 6 9 3 5 1005.2 1005.2 1.8
03/04:40am 9.6 8.3 9.3 98 0.1 WSW 6 7 3 4 1005.2 1005.2 1.8
03/04:30am 9.8 8.6 9.5 98 0.1 WSW 6 7 3 4 1005.1 1005.1 1.8
03/04:27am 9.9 8.7 9.6 98 0.1 WSW 6 7 3 4 1005.1 1005.1 1.8
03/04:00am 9.7 8.3 9.4 98 0.1 WNW 7 9 4 5 1005.6 1005.6 1.8
03/03:36am 10.0 9.6 9.7 98 0.2 N 2 7 1 4 1005.6 1005.6 1.8
03/03:30am 10.2 9.5 9.9 98 0.2 N 4 7 2 4 1005.7 1005.7 1.8
03/03:21am 10.2 10.2 9.9 98 0.2 CALM 0 0 0 0 1005.8 1005.8 1.8
03/03:01am 10.0 10.0 9.7 98 0.2 CALM 0 0 0 0 1006.5 1006.5 1.6
03/03:00am 9.9 9.8 9.6 98 0.2 CALM 0 0 0 0 1006.5 1006.5 1.6
03/02:30am 10.4 10.5 10.1 98 0.2 CALM 0 0 0 0 1006.5 1006.5 1.6
03/02:00am 10.9 9.7 10.4 97 0.3 SW 7 9 4 5 1007.2 1007.2 1.6
03/01:30am 11.4 11.6 10.6 95 0.4 CALM 0 6 0 3 1008.1 1008.1 1.6
03/01:00am 11.3 10.2 10.5 95 0.4 NW 7 11 4 6 1008.3 1008.3 1.6
03/12:30am 11.4 9.1 10.3 93 0.6 E 13 15 7 8 1008.2 1008.2 1.6
03/12:00am 11.4 9.7 10.0 91 0.7 N 9 13 5 7 1009.4 1009.4 1.2
 
Date/Time
EST
Temp
°C
App
Temp
°C
Dew
Point
Rel
Hum
%
Delta-T
°C
Wind Press
QNH
hPa
Press
MSL
hPa
Rain
since 9 am
mm
Dir
 
Spd
km/h
Gust
km/h
Spd
kts
Gust
kts
02/11:30pm 11.9 9.5 10.1 89 0.9 SSE 13 17 7 9 1008.4 1008.4 1.0
02/11:00pm 12.3 10.0 9.1 81 1.6 WSW 11 22 6 12 1009.5 1009.5 0.0
02/10:30pm 12.4 11.1 9.8 84 1.3 SW 7 9 4 5 1008.5 1008.5 0.0
02/10:00pm 12.1 11.9 8.9 81 1.6 CALM 0 0 0 0 1008.8 1008.8 0.0
02/09:30pm 12.1 10.6 9.1 82 1.5 NNE 7 9 4 5 1009.6 1009.6 0.0
02/09:00pm 13.2 11.9 9.3 77 2.0 SSE 6 6 3 3 1009.7 1009.7 0.0
02/08:30pm 14.0 13.8 9.0 72 2.5 CALM 0 0 0 0 1010.4 1010.4 0.0

Other Formats:

Comma delimited format used in spreadsheet applications
http://www.bom.gov.au/fwo/IDN60801/IDN60801.95753.axf

JavaScript Object Notation format (JSON) in row-major order
http://www.bom.gov.au/fwo/IDN60801/IDN60801.95753.json